createdAt,value
2022-09-28T00:00:07.574Z,8.80
2022-09-28T00:02:35.769Z,8.70
2022-09-28T00:05:03.622Z,8.70
2022-09-28T00:07:31.328Z,8.60
2022-09-28T00:10:00.384Z,8.60
2022-09-28T00:12:29.783Z,8.60
2022-09-28T00:14:57.507Z,8.70
2022-09-28T00:17:26.484Z,8.70
2022-09-28T00:19:54.202Z,8.70
2022-09-28T00:22:21.895Z,8.80
2022-09-28T00:24:49.618Z,8.80
2022-09-28T00:27:18.653Z,8.80
2022-09-28T00:29:46.362Z,8.80
2022-09-28T00:32:15.567Z,8.90
2022-09-28T00:34:45.924Z,8.90
2022-09-28T00:37:15.253Z,8.90
2022-09-28T00:39:43.944Z,8.90
2022-09-28T00:42:15.173Z,8.90
2022-09-28T00:44:49.000Z,8.90
2022-09-28T00:47:38.329Z,8.90
2022-09-28T00:50:11.390Z,8.90
2022-09-28T00:52:42.904Z,8.90
2022-09-28T00:55:14.900Z,8.90
2022-09-28T00:57:46.774Z,8.90
2022-09-28T01:00:16.779Z,8.90
2022-09-28T01:02:45.469Z,8.90
2022-09-28T01:05:14.152Z,8.90
2022-09-28T01:07:43.670Z,8.90
2022-09-28T01:10:11.894Z,8.80
2022-09-28T01:12:39.610Z,8.80
2022-09-28T01:15:08.133Z,8.90
2022-09-28T01:17:50.153Z,8.90
2022-09-28T01:20:34.437Z,8.90
2022-09-28T01:23:37.039Z,8.90
2022-09-28T01:26:35.298Z,8.90
2022-09-28T01:29:12.227Z,8.80
2022-09-28T01:31:45.237Z,8.90
2022-09-28T01:34:16.941Z,8.90
2022-09-28T01:36:49.134Z,8.80
2022-09-28T01:39:21.139Z,8.90
2022-09-28T01:41:53.205Z,8.80
2022-09-28T01:44:24.066Z,8.80
2022-09-28T01:46:53.347Z,8.90
2022-09-28T01:49:23.865Z,8.90
2022-09-28T01:51:56.440Z,8.80
2022-09-28T01:54:29.806Z,8.80
2022-09-28T01:57:06.392Z,8.80
2022-09-28T01:59:37.609Z,8.80
2022-09-28T02:02:10.581Z,8.70
2022-09-28T02:04:42.277Z,8.70
2022-09-28T02:07:13.901Z,8.80
2022-09-28T02:09:47.166Z,8.70
2022-09-28T02:12:21.147Z,8.80
2022-09-28T02:14:51.144Z,8.80
2022-09-28T02:17:19.028Z,8.80
2022-09-28T02:19:46.807Z,8.80
2022-09-28T02:22:23.252Z,8.70
2022-09-28T02:24:57.579Z,8.70
2022-09-28T02:27:35.513Z,8.70
2022-09-28T02:30:04.596Z,8.70
2022-09-28T02:32:34.293Z,8.70
2022-09-28T02:35:02.607Z,8.70
2022-09-28T02:37:30.358Z,8.70
2022-09-28T02:39:58.071Z,8.70
2022-09-28T02:42:32.091Z,8.70
2022-09-28T02:45:12.991Z,8.70
2022-09-28T02:47:57.352Z,8.70
2022-09-28T02:50:35.487Z,8.60
2022-09-28T02:53:33.399Z,8.60
2022-09-28T02:56:18.081Z,8.40
2022-09-28T02:58:57.436Z,8.30
2022-09-28T03:01:32.159Z,8.20
2022-09-28T03:04:07.483Z,8.20
2022-09-28T03:06:42.722Z,8.20
2022-09-28T03:09:16.546Z,8.30
2022-09-28T03:11:48.565Z,8.30
2022-09-28T03:14:18.152Z,8.20
2022-09-28T03:16:46.711Z,8.10
2022-09-28T03:19:15.619Z,8.00
2022-09-28T03:21:43.408Z,7.90
2022-09-28T03:24:11.367Z,7.80
2022-09-28T03:26:39.980Z,7.70
2022-09-28T03:29:07.777Z,7.60
2022-09-28T03:31:36.900Z,7.60
2022-09-28T03:34:05.006Z,7.50
2022-09-28T03:36:32.726Z,7.40
2022-09-28T03:39:00.556Z,7.30
2022-09-28T03:41:28.839Z,7.20
2022-09-28T03:43:56.807Z,7.20
2022-09-28T03:46:24.518Z,7.10
2022-09-28T03:48:53.569Z,7.10
2022-09-28T03:51:21.317Z,7.20
2022-09-28T03:53:49.051Z,7.10
2022-09-28T03:56:17.454Z,7.10
2022-09-28T03:58:45.233Z,7.10
2022-09-28T04:01:17.660Z,7.10
2022-09-28T04:03:46.373Z,7.10
2022-09-28T04:06:16.125Z,7.00
2022-09-28T04:08:44.028Z,7.00
2022-09-28T04:11:11.754Z,7.00
2022-09-28T04:13:39.505Z,7.00
2022-09-28T04:16:07.756Z,7.00
2022-09-28T04:18:35.548Z,7.00
2022-09-28T04:21:06.726Z,7.10
2022-09-28T04:23:37.015Z,7.10
2022-09-28T04:26:05.751Z,7.10
2022-09-28T04:28:51.343Z,7.10
2022-09-28T04:31:21.309Z,7.20
2022-09-28T04:33:49.259Z,7.30
2022-09-28T04:36:17.898Z,7.30
2022-09-28T04:38:53.178Z,7.40
2022-09-28T04:41:22.774Z,7.50
2022-09-28T04:43:50.908Z,7.50
2022-09-28T04:46:19.293Z,7.50
2022-09-28T04:48:47.407Z,7.50
2022-09-28T04:51:15.302Z,7.70
2022-09-28T04:53:43.038Z,7.70
2022-09-28T04:56:14.738Z,7.70
2022-09-28T04:58:43.150Z,7.80
2022-09-28T05:01:13.522Z,7.80
2022-09-28T05:03:41.488Z,7.70
2022-09-28T05:06:09.883Z,7.80
2022-09-28T05:08:37.597Z,7.80
2022-09-28T05:11:07.636Z,7.80
2022-09-28T05:13:41.745Z,7.90
2022-09-28T05:16:10.918Z,7.80
2022-09-28T05:18:38.721Z,7.90
2022-09-28T05:21:10.651Z,7.90
2022-09-28T05:23:38.375Z,7.90
2022-09-28T05:26:06.243Z,7.80
2022-09-28T05:28:35.911Z,7.80
2022-09-28T05:31:04.924Z,7.70
2022-09-28T05:33:33.999Z,7.60
2022-09-28T05:36:02.202Z,7.50
2022-09-28T05:38:30.382Z,7.40
2022-09-28T05:40:58.387Z,7.30
2022-09-28T05:43:26.505Z,7.40
2022-09-28T05:45:56.022Z,7.40
2022-09-28T05:48:23.878Z,7.30
2022-09-28T05:50:52.309Z,7.30
2022-09-28T05:53:20.450Z,7.20
2022-09-28T05:55:48.277Z,7.20
2022-09-28T05:58:16.072Z,7.20
2022-09-28T06:00:44.332Z,7.30
2022-09-28T06:03:15.119Z,7.20
2022-09-28T06:05:43.056Z,7.30
2022-09-28T06:08:11.640Z,7.20
2022-09-28T06:10:40.084Z,7.30
2022-09-28T06:13:08.608Z,7.30
2022-09-28T06:15:38.050Z,7.30
2022-09-28T06:18:07.453Z,7.30
2022-09-28T06:20:38.059Z,7.40
2022-09-28T06:23:05.841Z,7.50
2022-09-28T06:25:33.596Z,7.50
2022-09-28T06:28:03.604Z,7.70
2022-09-28T06:30:34.953Z,7.70
2022-09-28T06:33:03.576Z,7.80
2022-09-28T06:35:32.298Z,7.90
2022-09-28T06:38:01.722Z,7.90
2022-09-28T06:40:29.977Z,8.00
2022-09-28T06:42:58.898Z,8.10
2022-09-28T06:45:28.194Z,8.10
2022-09-28T06:47:58.365Z,8.20
2022-09-28T06:50:27.756Z,8.20
2022-09-28T06:52:57.135Z,8.40
2022-09-28T06:55:27.046Z,8.30
2022-09-28T06:58:02.011Z,8.50
2022-09-28T07:00:32.870Z,8.60
2022-09-28T07:03:00.731Z,8.70
2022-09-28T07:05:29.934Z,8.70
2022-09-28T07:07:58.486Z,8.90
2022-09-28T07:10:29.385Z,9.00
2022-09-28T07:12:58.052Z,9.20
2022-09-28T07:15:27.404Z,9.40
2022-09-28T07:18:02.431Z,9.50
2022-09-28T07:20:31.958Z,9.60
2022-09-28T07:23:15.745Z,9.80
2022-09-28T07:25:49.597Z,9.90
2022-09-28T07:28:18.138Z,10.00
2022-09-28T07:30:45.909Z,10.20
2022-09-28T07:33:15.939Z,10.30
2022-09-28T07:35:52.196Z,10.40
2022-09-28T07:38:20.386Z,10.60
2022-09-28T07:41:07.880Z,10.70
2022-09-28T07:43:35.733Z,10.80
2022-09-28T07:46:03.515Z,11.00
2022-09-28T07:48:37.803Z,11.10
2022-09-28T07:51:05.944Z,11.20
2022-09-28T07:53:33.738Z,11.50
2022-09-28T07:56:07.228Z,11.90
2022-09-28T07:58:36.064Z,12.20
2022-09-28T08:01:09.010Z,12.30
2022-09-28T08:03:37.903Z,12.30
2022-09-28T08:06:07.582Z,12.10
2022-09-28T08:08:35.721Z,11.90
2022-09-28T08:11:08.396Z,11.80
2022-09-28T08:13:36.211Z,11.70
2022-09-28T08:16:05.191Z,11.70
2022-09-28T08:18:33.040Z,11.90
2022-09-28T08:21:18.236Z,12.20
2022-09-28T08:23:46.011Z,12.30
2022-09-28T08:26:15.759Z,12.30
2022-09-28T08:28:45.106Z,12.30
2022-09-28T08:31:13.147Z,12.30
2022-09-28T08:33:42.255Z,12.20
2022-09-28T08:36:11.260Z,12.40
2022-09-28T08:38:39.062Z,12.50
2022-09-28T08:41:15.535Z,12.60
2022-09-28T08:44:10.184Z,12.70
2022-09-28T08:46:41.877Z,12.80
2022-09-28T08:49:25.049Z,12.70
2022-09-28T08:52:00.908Z,12.80
2022-09-28T08:54:35.757Z,13.10
2022-09-28T08:57:07.366Z,13.50
2022-09-28T08:59:46.516Z,13.60
2022-09-28T09:02:19.209Z,13.60
2022-09-28T09:04:47.167Z,13.60
2022-09-28T09:07:45.825Z,13.60
2022-09-28T09:10:28.562Z,13.60
2022-09-28T09:13:04.227Z,13.40
2022-09-28T09:15:48.871Z,13.30
2022-09-28T09:18:27.054Z,13.00
2022-09-28T09:20:57.674Z,12.90
2022-09-28T09:23:35.733Z,12.90
2022-09-28T09:26:12.473Z,13.10
2022-09-28T09:29:01.532Z,13.20
2022-09-28T09:31:44.818Z,13.00
2022-09-28T09:34:27.062Z,12.90
2022-09-28T09:37:19.722Z,12.80
2022-09-28T09:40:03.795Z,12.60
2022-09-28T09:42:44.473Z,12.40
2022-09-28T09:45:35.694Z,12.30
2022-09-28T09:48:11.059Z,12.30
2022-09-28T09:50:45.812Z,12.20
2022-09-28T09:53:18.867Z,12.20
2022-09-28T09:55:50.397Z,12.20
2022-09-28T09:58:21.764Z,12.20
2022-09-28T10:00:53.087Z,12.20
2022-09-28T10:03:25.130Z,12.40
2022-09-28T10:05:59.064Z,12.50
2022-09-28T10:08:27.934Z,12.40
2022-09-28T10:11:08.339Z,12.50
2022-09-28T10:13:36.186Z,12.50
2022-09-28T10:16:04.164Z,12.20
2022-09-28T10:18:34.268Z,12.20
2022-09-28T10:21:02.022Z,12.10
2022-09-28T10:23:33.933Z,12.00
2022-09-28T10:26:05.509Z,11.80
2022-09-28T10:28:40.899Z,11.60
2022-09-28T10:31:41.743Z,11.40
2022-09-28T10:34:14.791Z,11.20
2022-09-28T10:36:50.625Z,10.90
2022-09-28T10:39:29.664Z,10.90
2022-09-28T10:41:59.772Z,10.90
2022-09-28T10:44:28.434Z,10.90
2022-09-28T10:47:01.668Z,10.80
2022-09-28T10:49:44.368Z,10.90
2022-09-28T10:52:33.648Z,10.90
2022-09-28T10:55:01.426Z,10.80
2022-09-28T10:57:30.411Z,10.90
2022-09-28T10:59:58.124Z,10.90
2022-09-28T11:02:33.485Z,10.80
2022-09-28T11:05:07.331Z,10.80
2022-09-28T11:07:46.454Z,10.80
2022-09-28T11:10:22.554Z,10.80
2022-09-28T11:12:51.613Z,10.90
2022-09-28T11:15:21.428Z,10.90
2022-09-28T11:17:49.658Z,11.00
2022-09-28T11:20:43.552Z,11.00
2022-09-28T11:23:20.482Z,10.90
2022-09-28T11:26:00.325Z,10.90
2022-09-28T11:28:34.279Z,11.00
2022-09-28T11:31:03.097Z,10.90
2022-09-28T11:33:33.780Z,10.90
2022-09-28T11:36:23.574Z,11.00
2022-09-28T11:39:03.412Z,10.90
2022-09-28T11:41:48.446Z,10.90
2022-09-28T11:44:44.555Z,10.90
2022-09-28T11:47:35.590Z,10.90
2022-09-28T11:50:08.923Z,10.90
2022-09-28T11:52:47.191Z,11.00
2022-09-28T11:55:22.697Z,11.10
2022-09-28T11:57:56.968Z,11.10
2022-09-28T12:00:25.420Z,11.10
2022-09-28T12:02:58.977Z,11.20
2022-09-28T12:05:29.779Z,11.40
2022-09-28T12:08:04.835Z,11.40
2022-09-28T12:10:43.356Z,11.50
2022-09-28T12:13:17.507Z,11.50
2022-09-28T12:18:45.074Z,11.90
2022-09-28T12:21:28.733Z,12.10
2022-09-28T12:24:06.260Z,12.30
2022-09-28T12:26:41.216Z,12.40
2022-09-28T12:29:14.707Z,12.60
2022-09-28T12:31:53.076Z,12.70
2022-09-28T12:34:21.588Z,12.70
2022-09-28T12:36:58.802Z,12.60
2022-09-28T12:39:57.845Z,12.60
2022-09-28T12:42:46.093Z,12.60
2022-09-28T12:45:38.462Z,12.50
2022-09-28T12:48:40.731Z,12.40
2022-09-28T12:51:21.902Z,12.40
2022-09-28T12:54:09.193Z,12.30
2022-09-28T12:56:55.471Z,12.40
2022-09-28T12:59:27.447Z,12.30
2022-09-28T13:02:21.964Z,12.40
2022-09-28T13:05:09.094Z,12.30
2022-09-28T13:07:45.112Z,12.30
2022-09-28T13:10:21.701Z,12.50
2022-09-28T13:13:01.570Z,12.60
2022-09-28T13:15:45.892Z,12.70
2022-09-28T13:18:22.713Z,12.70
2022-09-28T13:21:04.862Z,12.80
2022-09-28T13:23:38.584Z,12.70
2022-09-28T13:26:14.875Z,12.60
2022-09-28T13:28:46.899Z,12.70
2022-09-28T13:31:21.101Z,12.80
2022-09-28T13:33:50.349Z,12.90
2022-09-28T13:36:47.204Z,13.00
2022-09-28T13:39:52.716Z,13.10
2022-09-28T13:42:37.687Z,13.20
2022-09-28T13:45:24.509Z,13.10
2022-09-28T13:48:21.180Z,13.10
2022-09-28T13:51:08.603Z,13.10
2022-09-28T13:53:48.153Z,13.10
2022-09-28T13:56:27.696Z,13.00
2022-09-28T13:58:59.440Z,12.90
2022-09-28T14:01:33.063Z,13.00
2022-09-28T14:04:16.455Z,13.10
2022-09-28T14:06:48.732Z,13.20
2022-09-28T14:09:51.415Z,13.10
2022-09-28T14:12:31.462Z,13.20
2022-09-28T14:14:59.530Z,13.20
2022-09-28T14:18:00.022Z,13.30
2022-09-28T14:20:31.363Z,13.40
2022-09-28T14:23:31.498Z,13.50
2022-09-28T14:26:29.160Z,13.40
2022-09-28T14:29:10.046Z,13.30
2022-09-28T14:31:43.345Z,13.20
2022-09-28T14:34:32.708Z,13.30
2022-09-28T14:37:18.896Z,13.10
2022-09-28T14:40:05.565Z,13.00
2022-09-28T14:42:33.778Z,12.90
2022-09-28T14:45:36.164Z,12.70
2022-09-28T14:48:16.178Z,12.60
2022-09-28T14:50:47.204Z,12.40
2022-09-28T14:53:20.710Z,12.30
2022-09-28T14:55:55.386Z,12.30
2022-09-28T14:58:26.605Z,12.50
2022-09-28T15:01:02.040Z,12.50
2022-09-28T15:03:34.087Z,12.70
2022-09-28T15:06:03.131Z,12.70
2022-09-28T15:08:38.767Z,12.90
2022-09-28T15:11:11.846Z,12.80
2022-09-28T15:13:40.782Z,12.80
2022-09-28T15:16:11.717Z,12.70
2022-09-28T15:19:02.732Z,12.60
2022-09-28T15:21:37.942Z,12.50
2022-09-28T15:24:27.750Z,12.30
2022-09-28T15:26:56.741Z,12.20
2022-09-28T15:29:26.775Z,12.10
2022-09-28T15:31:54.830Z,12.10
2022-09-28T15:34:47.221Z,12.00
2022-09-28T15:37:18.992Z,12.00
2022-09-28T15:39:48.100Z,11.90
2022-09-28T15:42:17.604Z,11.80
2022-09-28T15:45:02.516Z,11.70
2022-09-28T15:47:31.840Z,11.40
2022-09-28T15:50:02.746Z,11.20
2022-09-28T15:52:37.050Z,11.20
2022-09-28T15:55:16.986Z,11.20
2022-09-28T15:57:45.061Z,11.20
2022-09-28T16:00:26.064Z,11.20
2022-09-28T16:03:06.340Z,11.10
2022-09-28T16:05:39.225Z,11.10
2022-09-28T16:08:21.240Z,11.00
2022-09-28T16:10:57.539Z,11.10
2022-09-28T16:13:25.501Z,11.00
2022-09-28T16:15:59.704Z,10.90
2022-09-28T16:18:30.153Z,11.00
2022-09-28T16:21:21.227Z,10.80
2022-09-28T16:23:55.659Z,10.80
2022-09-28T16:26:31.877Z,10.80
2022-09-28T16:29:00.204Z,10.80
2022-09-28T16:31:34.330Z,10.80
2022-09-28T16:34:11.873Z,10.70
2022-09-28T16:36:45.505Z,10.50
2022-09-28T16:39:16.376Z,10.50
2022-09-28T16:41:47.980Z,10.40
2022-09-28T16:44:23.406Z,10.40
2022-09-28T16:46:53.869Z,10.30
2022-09-28T16:49:23.825Z,10.10
2022-09-28T16:51:51.905Z,10.10
2022-09-28T16:54:40.271Z,10.10
2022-09-28T16:57:11.874Z,9.90
2022-09-28T16:59:39.891Z,9.90
2022-09-28T17:02:42.196Z,9.80
2022-09-28T17:05:07.288Z,9.80
2022-09-28T17:07:35.495Z,9.80
2022-09-28T17:10:10.070Z,9.70
2022-09-28T17:12:37.859Z,9.70
2022-09-28T17:15:06.302Z,9.60
2022-09-28T17:17:34.019Z,9.60
2022-09-28T17:20:02.619Z,9.50
2022-09-28T17:22:30.360Z,9.50
2022-09-28T17:24:58.097Z,9.60
2022-09-28T17:27:27.230Z,9.50
2022-09-28T17:29:55.042Z,9.50
2022-09-28T17:32:22.800Z,9.40
2022-09-28T17:35:00.701Z,9.30
2022-09-28T17:37:36.238Z,9.40
2022-09-28T17:40:08.429Z,9.30
2022-09-28T17:42:37.525Z,9.30
2022-09-28T17:45:05.899Z,9.40
2022-09-28T17:47:34.475Z,9.40
2022-09-28T17:50:02.439Z,9.40
2022-09-28T17:52:30.141Z,9.40
2022-09-28T17:54:57.870Z,9.40
2022-09-28T17:57:25.888Z,9.40
2022-09-28T17:59:54.895Z,9.30
2022-09-28T18:02:23.787Z,9.30
2022-09-28T18:04:52.774Z,9.30
2022-09-28T18:07:20.686Z,9.30
2022-09-28T18:09:48.745Z,9.30
2022-09-28T18:12:16.708Z,9.30
2022-09-28T18:14:44.757Z,9.40
2022-09-28T18:17:14.225Z,9.30
2022-09-28T18:19:42.195Z,9.20
2022-09-28T18:22:10.193Z,9.20
2022-09-28T18:24:38.259Z,9.20
2022-09-28T18:27:06.355Z,9.20
2022-09-28T18:29:34.407Z,9.20
2022-09-28T18:32:03.186Z,9.10
2022-09-28T18:34:35.558Z,9.20
2022-09-28T18:37:03.511Z,9.20
2022-09-28T18:39:31.471Z,9.10
2022-09-28T18:41:59.416Z,9.10
2022-09-28T18:44:27.356Z,9.10
2022-09-28T18:46:55.379Z,9.20
2022-09-28T18:49:24.004Z,9.20
2022-09-28T18:51:53.425Z,9.10
2022-09-28T18:54:21.313Z,9.10
2022-09-28T18:56:51.176Z,9.00
2022-09-28T18:59:19.175Z,9.00
2022-09-28T19:01:47.203Z,9.00
2022-09-28T19:04:15.271Z,9.00
2022-09-28T19:06:44.684Z,8.90
2022-09-28T19:09:13.966Z,8.90
2022-09-28T19:11:41.922Z,8.80
2022-09-28T19:14:11.044Z,8.80
2022-09-28T19:16:38.915Z,8.80
2022-09-28T19:19:06.701Z,8.80
2022-09-28T19:21:34.503Z,8.90
2022-09-28T19:24:03.154Z,8.90
2022-09-28T19:26:32.961Z,8.90
2022-09-28T19:29:02.721Z,8.90
2022-09-28T19:31:31.345Z,8.80
2022-09-28T19:33:59.372Z,8.70
2022-09-28T19:36:28.559Z,8.70
2022-09-28T19:38:57.944Z,8.70
2022-09-28T19:41:45.642Z,8.60
2022-09-28T19:44:24.296Z,8.50
2022-09-28T19:46:53.574Z,8.40
2022-09-28T19:49:22.622Z,8.30
2022-09-28T19:52:12.175Z,8.30
2022-09-28T19:54:41.162Z,8.20
2022-09-28T19:57:09.215Z,8.10
2022-09-28T19:59:39.219Z,8.10
2022-09-28T20:02:08.440Z,8.00
2022-09-28T20:04:36.293Z,8.00
2022-09-28T20:07:05.246Z,8.00
2022-09-28T20:09:33.073Z,8.00
2022-09-28T20:12:01.035Z,7.90
2022-09-28T20:14:33.129Z,7.80
2022-09-28T20:17:05.498Z,7.80
2022-09-28T20:19:33.626Z,7.70
2022-09-28T20:22:02.758Z,7.70
2022-09-28T20:24:30.979Z,7.70
2022-09-28T20:26:58.705Z,7.70
2022-09-28T20:29:26.685Z,7.70
2022-09-28T20:31:54.463Z,7.60
2022-09-28T20:34:23.489Z,7.60
2022-09-28T20:36:51.218Z,7.60
2022-09-28T20:39:19.120Z,7.50
2022-09-28T20:41:49.130Z,7.60
2022-09-28T20:44:16.997Z,7.50
2022-09-28T20:46:44.977Z,7.40
2022-09-28T20:49:12.806Z,7.50
2022-09-28T20:51:41.888Z,7.50
2022-09-28T20:54:09.690Z,7.50
2022-09-28T20:56:38.915Z,7.50
2022-09-28T20:59:10.504Z,7.60
2022-09-28T21:01:38.459Z,7.60
2022-09-28T21:04:07.682Z,7.60
2022-09-28T21:06:37.813Z,7.60
2022-09-28T21:09:08.427Z,7.60
2022-09-28T21:11:36.761Z,7.60
2022-09-28T21:14:06.715Z,7.60
2022-09-28T21:16:35.837Z,7.60
2022-09-28T21:19:04.080Z,7.60
2022-09-28T21:21:31.969Z,7.50
2022-09-28T21:23:59.736Z,7.50
2022-09-28T21:26:31.237Z,7.40
2022-09-28T21:29:00.644Z,7.40
2022-09-28T21:31:30.774Z,7.30
2022-09-28T21:33:59.301Z,7.40
2022-09-28T21:36:27.078Z,7.30
2022-09-28T21:38:55.529Z,7.30
2022-09-28T21:41:23.450Z,7.30
2022-09-28T21:43:52.653Z,7.20
2022-09-28T21:46:20.531Z,7.20
2022-09-28T21:48:52.552Z,7.20
2022-09-28T21:51:20.866Z,7.20
2022-09-28T21:53:49.441Z,7.10
2022-09-28T21:56:17.499Z,7.00
2022-09-28T21:58:45.248Z,7.00
2022-09-28T22:01:18.324Z,6.90
2022-09-28T22:03:49.185Z,7.00
2022-09-28T22:06:18.768Z,7.10
2022-09-28T22:08:46.890Z,7.00
2022-09-28T22:11:17.861Z,7.00
2022-09-28T22:13:47.314Z,7.10
2022-09-28T22:16:18.235Z,7.20
2022-09-28T22:18:46.243Z,7.20
2022-09-28T22:21:15.518Z,7.20
2022-09-28T22:23:43.607Z,7.20
2022-09-28T22:26:13.106Z,7.30
2022-09-28T22:28:46.290Z,7.30
2022-09-28T22:31:16.900Z,7.40
2022-09-28T22:33:44.916Z,7.30
2022-09-28T22:36:16.959Z,7.20
2022-09-28T22:38:45.002Z,7.20
2022-09-28T22:41:15.846Z,7.10
2022-09-28T22:43:44.459Z,7.10
2022-09-28T22:46:14.260Z,7.00
2022-09-28T22:48:47.136Z,6.90
2022-09-28T22:51:15.564Z,6.90
2022-09-28T22:53:43.479Z,6.80
2022-09-28T22:56:15.951Z,6.80
2022-09-28T22:58:46.237Z,6.80
2022-09-28T23:01:17.191Z,6.80
2022-09-28T23:03:46.705Z,6.70
2022-09-28T23:06:16.580Z,6.70
2022-09-28T23:08:45.433Z,6.70
2022-09-28T23:11:13.187Z,6.60
2022-09-28T23:13:40.906Z,6.70
2022-09-28T23:16:12.400Z,6.60
2022-09-28T23:18:41.716Z,6.60
2022-09-28T23:21:15.128Z,6.50
2022-09-28T23:23:43.120Z,6.40
2022-09-28T23:26:13.934Z,6.30
2022-09-28T23:28:42.120Z,6.20
2022-09-28T23:31:11.068Z,6.20
2022-09-28T23:33:39.038Z,6.20
2022-09-28T23:36:07.746Z,6.20
2022-09-28T23:38:37.223Z,6.10
2022-09-28T23:41:05.486Z,6.00
2022-09-28T23:43:33.610Z,6.00
2022-09-28T23:46:01.402Z,6.00
2022-09-28T23:48:29.260Z,6.00
2022-09-28T23:50:56.978Z,6.00
2022-09-28T23:53:24.733Z,6.10
2022-09-28T23:55:53.787Z,6.00
2022-09-28T23:58:21.584Z,6.00
